首页
METAR-TAF:

METAR-TAF

机场 :

于克塞科瓦, 土耳其

纬度: 37-33-06N, 经度: 44-14-01E, 海拔: 1950米

当前天气观测

该预报发布于54分钟前的07:50 UTC
风速2节,风向西转西北
温度 1°C
湿度 100%
气压 1019 hPa
能見度: 4500
少量云层高于4000英尺
轻雾

METAR: LTCW 030750Z 30002KT 4500 BR FEW040 01/01 Q1019

时间: 11:44 (08:44 UTC)

预报

该预报发布于4小时和4分钟前的04:40 UTC
预报有效从03日的 06点(UTC)到 03日的 15点(UTC)
风速9节,风向东北
能見度: 6000
少量云层高于1000英尺
散云层高于3500英尺
多云层高于7000英尺
短暂存在
从 03日的 06点(UTC)到 03日的 09点(UTC)
能見度: 1100
轻雾
短暂存在
从 03日的 09点(UTC)到 03日的 12点(UTC)
能見度: 1600
轻雾
几率 40% :
短暂存在
从 03日的 12点(UTC)到 03日的 15点(UTC)
能見度: 1600
散云层高于1000英尺
多云层高于3000英尺
小雨, 雪, 轻雾

TAF: LTCW 030440Z 0306/0315 05009KT 6000 FEW010 SCT035 BKN070 TEMPO 0306/0309 1100 BR TEMPO 0309/0312 1600 BR PROB40 TEMPO 0312/0315 1600 -RASN BR SCT010 BKN030

超过4000个机场的气象观测和天气预报(METAR&TAF报告)。

可查询的气象台以黄色和红色小点在地图上表示。

将鼠标移到小点上方,可查看气象台名称。

然后点击查看天气观测和预报。

如需切换地图:点击带黑十字的绿色按钮放大地图;点击带横线的绿色按钮缩小地图;或者点击绿色箭头查看邻近地区的地图。


METAR-TAF: